Main page
METAR-TAF:

METAR-TAF

Airports :

Gamètì/Rae Lakes Airport

Gamèti, Northwest Territories, Canada

latitude: 64-06-58N, longitude: 117-18-35W, elevation: 221 m

Current weather observation

The report was made 59 minutes ago, at 00:00 UTC
Wind 6 kt from the Northwest
Temperature 9°C
Humidity 43%
Pressure 1025 hPa
Visibility: 24.1 km
Scattered clouds at a height of 21000 ft

METAR: CYRA 200000Z 32006KT 15SM SCT210 09/M03 A3027 RMK CI3 LAST STFD OBS/NEXT 201500 Z SLP269

Time: 18:59 (00:59 UTC)

Forecast

The report was made 6 hours and 19 minutes ago, at 18:40 UTC
Forecast valid from 19 at 19 UTC to 19 at 24 UTC
Wind 3 kt from variable directions
Visibility: 10 km
Scattered clouds at a height of 18000 ft

TAF: CYRA 191840Z 1919/1924 VRB03KT P6SM SCT180 RMK NXT FCST BY 201700Z

Weather observations and forecasts of more than 4000 airports (METAR and TAF reports).

The available stations are represented by yellow and red dots on the map.

Hover mouse over dot to see the name of the station.

Then click to see weather observations and forecasts.

To change the map : click on the green buttons with a black cross to zoom in, on the green button with a dash to zoom out, or on the green arrows for adjacent maps.


METAR-TAF: